sensor_id;sensor_type;location;lat;lon;timestamp;pressure;altitude;pressure_sealevel;temperature;humidity
55301;BME280;58302;51.446;-2.000;2023-03-14T00:00:49;97753.25;;;6.66;100.00
55301;BME280;58302;51.446;-2.000;2023-03-14T00:03:15;97753.06;;;6.62;100.00
55301;BME280;58302;51.446;-2.000;2023-03-14T00:05:41;97767.34;;;6.63;100.00
55301;BME280;58302;51.446;-2.000;2023-03-14T00:08:06;97769.84;;;6.59;100.00
55301;BME280;58302;51.446;-2.000;2023-03-14T00:10:32;97780.97;;;6.57;100.00
55301;BME280;58302;51.446;-2.000;2023-03-14T00:12:58;97783.97;;;6.56;100.00
55301;BME280;58302;51.446;-2.000;2023-03-14T00:15:24;97778.56;;;6.56;100.00
55301;BME280;58302;51.446;-2.000;2023-03-14T00:17:50;97796.97;;;6.54;100.00
55301;BME280;58302;51.446;-2.000;2023-03-14T00:20:16;97801.75;;;6.57;100.00
55301;BME280;58302;51.446;-2.000;2023-03-14T00:22:42;97807.47;;;6.55;100.00
55301;BME280;58302;51.446;-2.000;2023-03-14T00:25:10;97808.25;;;6.56;100.00
55301;BME280;58302;51.446;-2.000;2023-03-14T00:27:36;97828.78;;;6.43;100.00
55301;BME280;58302;51.446;-2.000;2023-03-14T00:30:03;97843.56;;;6.32;100.00
55301;BME280;58302;51.446;-2.000;2023-03-14T00:32:29;97858.56;;;6.24;100.00
55301;BME280;58302;51.446;-2.000;2023-03-14T00:34:55;97871.34;;;6.19;100.00
55301;BME280;58302;51.446;-2.000;2023-03-14T00:37:21;97872.53;;;6.13;100.00
55301;BME280;58302;51.446;-2.000;2023-03-14T00:39:47;97875.31;;;6.07;100.00
55301;BME280;58302;51.446;-2.000;2023-03-14T00:42:13;97893.19;;;6.03;100.00
55301;BME280;58302;51.446;-2.000;2023-03-14T00:44:39;97909.38;;;6.03;100.00
55301;BME280;58302;51.446;-2.000;2023-03-14T00:47:06;97916.16;;;6.01;100.00
55301;BME280;58302;51.446;-2.000;2023-03-14T00:49:32;97924.84;;;5.98;100.00
55301;BME280;58302;51.446;-2.000;2023-03-14T00:51:58;97929.16;;;5.99;100.00
55301;BME280;58302;51.446;-2.000;2023-03-14T00:54:24;97933.91;;;5.88;100.00
55301;BME280;58302;51.446;-2.000;2023-03-14T00:56:50;97961.75;;;5.65;100.00
55301;BME280;58302;51.446;-2.000;2023-03-14T00:59:16;97969.13;;;5.59;100.00
55301;BME280;58302;51.446;-2.000;2023-03-14T01:01:43;97984.13;;;5.46;100.00
55301;BME280;58302;51.446;-2.000;2023-03-14T01:04:10;98003.81;;;5.28;100.00
55301;BME280;58302;51.446;-2.000;2023-03-14T01:06:39;98043.66;;;5.26;100.00
55301;BME280;58302;51.446;-2.000;2023-03-14T01:09:05;98048.97;;;5.12;100.00
55301;BME280;58302;51.446;-2.000;2023-03-14T01:11:33;98086.47;;;5.03;100.00
55301;BME280;58302;51.446;-2.000;2023-03-14T01:13:59;98096.75;;;5.01;100.00
55301;BME280;58302;51.446;-2.000;2023-03-14T01:16:30;98095.53;;;4.89;100.00
55301;BME280;58302;51.446;-2.000;2023-03-14T01:18:56;98112.59;;;4.79;100.00
55301;BME280;58302;51.446;-2.000;2023-03-14T01:21:23;98125.22;;;4.84;100.00
55301;BME280;58302;51.446;-2.000;2023-03-14T01:23:50;98136.56;;;4.75;100.00
55301;BME280;58302;51.446;-2.000;2023-03-14T01:26:20;98148.81;;;4.63;100.00
55301;BME280;58302;51.446;-2.000;2023-03-14T01:28:48;98164.75;;;4.54;100.00
55301;BME280;58302;51.446;-2.000;2023-03-14T01:31:14;98165.38;;;4.46;100.00
55301;BME280;58302;51.446;-2.000;2023-03-14T01:33:43;98171.00;;;4.44;100.00
55301;BME280;58302;51.446;-2.000;2023-03-14T01:36:10;98188.81;;;4.40;100.00
55301;BME280;58302;51.446;-2.000;2023-03-14T01:38:38;98203.94;;;4.26;100.00
55301;BME280;58302;51.446;-2.000;2023-03-14T01:41:04;98206.69;;;4.16;100.00
55301;BME280;58302;51.446;-2.000;2023-03-14T01:43:30;98228.22;;;4.11;100.00
55301;BME280;58302;51.446;-2.000;2023-03-14T01:48:45;98247.88;;;4.06;100.00
55301;BME280;58302;51.446;-2.000;2023-03-14T01:51:21;98257.28;;;4.09;100.00
55301;BME280;58302;51.446;-2.000;2023-03-14T01:53:50;98278.00;;;4.03;100.00
55301;BME280;58302;51.446;-2.000;2023-03-14T01:56:19;98281.50;;;3.99;100.00
55301;BME280;58302;51.446;-2.000;2023-03-14T01:58:47;98287.47;;;3.90;100.00
55301;BME280;58302;51.446;-2.000;2023-03-14T02:01:16;98301.47;;;3.82;100.00
55301;BME280;58302;51.446;-2.000;2023-03-14T02:03:48;98309.53;;;3.77;100.00
55301;BME280;58302;51.446;-2.000;2023-03-14T02:06:18;98332.91;;;3.72;100.00
55301;BME280;58302;51.446;-2.000;2023-03-14T02:08:45;98332.91;;;3.72;100.00
55301;BME280;58302;51.446;-2.000;2023-03-14T02:11:14;98342.59;;;3.67;100.00
55301;BME280;58302;51.446;-2.000;2023-03-14T02:13:40;98347.97;;;3.62;100.00
55301;BME280;58302;51.446;-2.000;2023-03-14T02:16:07;98344.50;;;3.57;100.00
55301;BME280;58302;51.446;-2.000;2023-03-14T02:18:33;98364.38;;;3.56;100.00
55301;BME280;58302;51.446;-2.000;2023-03-14T02:24:22;98385.59;;;3.47;100.00
55301;BME280;58302;51.446;-2.000;2023-03-14T02:29:36;98389.09;;;3.32;100.00
55301;BME280;58302;51.446;-2.000;2023-03-14T02:32:05;98393.66;;;3.32;100.00
55301;BME280;58302;51.446;-2.000;2023-03-14T02:34:33;98398.22;;;3.26;100.00
55301;BME280;58302;51.446;-2.000;2023-03-14T02:37:00;98414.06;;;3.28;100.00
55301;BME280;58302;51.446;-2.000;2023-03-14T02:39:42;98414.84;;;3.28;100.00
55301;BME280;58302;51.446;-2.000;2023-03-14T02:42:11;98413.25;;;3.22;100.00
55301;BME280;58302;51.446;-2.000;2023-03-14T02:44:48;98427.72;;;3.11;100.00
55301;BME280;58302;51.446;-2.000;2023-03-14T02:47:15;98438.72;;;2.99;100.00
55301;BME280;58302;51.446;-2.000;2023-03-14T02:49:41;98449.41;;;2.89;100.00
55301;BME280;58302;51.446;-2.000;2023-03-14T02:52:07;98447.53;;;2.84;100.00
55301;BME280;58302;51.446;-2.000;2023-03-14T02:54:33;98447.53;;;2.89;100.00
55301;BME280;58302;51.446;-2.000;2023-03-14T02:56:59;98459.03;;;2.80;100.00
55301;BME280;58302;51.446;-2.000;2023-03-14T02:59:25;98457.69;;;2.77;100.00
55301;BME280;58302;51.446;-2.000;2023-03-14T03:01:51;98475.13;;;2.75;100.00
55301;BME280;58302;51.446;-2.000;2023-03-14T03:04:17;98484.25;;;2.79;100.00
55301;BME280;58302;51.446;-2.000;2023-03-14T03:06:43;98490.41;;;2.74;100.00
55301;BME280;58302;51.446;-2.000;2023-03-14T03:09:09;98491.50;;;2.78;100.00
55301;BME280;58302;51.446;-2.000;2023-03-14T03:11:35;98488.00;;;2.73;100.00
55301;BME280;58302;51.446;-2.000;2023-03-14T03:14:01;98495.75;;;2.64;100.00
55301;BME280;58302;51.446;-2.000;2023-03-14T03:16:27;98497.09;;;2.67;100.00
55301;BME280;58302;51.446;-2.000;2023-03-14T03:18:53;98504.56;;;2.59;100.00
55301;BME280;58302;51.446;-2.000;2023-03-14T03:21:18;98510.72;;;2.55;100.00
55301;BME280;58302;51.446;-2.000;2023-03-14T03:23:49;98505.88;;;2.57;100.00
55301;BME280;58302;51.446;-2.000;2023-03-14T03:26:15;98517.50;;;2.73;100.00
55301;BME280;58302;51.446;-2.000;2023-03-14T03:28:42;98515.84;;;2.67;100.00
55301;BME280;58302;51.446;-2.000;2023-03-14T03:31:11;98515.03;;;2.61;100.00
55301;BME280;58302;51.446;-2.000;2023-03-14T03:33:37;98521.69;;;2.53;100.00
55301;BME280;58302;51.446;-2.000;2023-03-14T03:36:04;98521.97;;;2.57;100.00
55301;BME280;58302;51.446;-2.000;2023-03-14T03:38:30;98522.84;;;2.73;100.00
55301;BME280;58302;51.446;-2.000;2023-03-14T03:40:56;98531.22;;;2.81;100.00
55301;BME280;58302;51.446;-2.000;2023-03-14T03:43:22;98552.91;;;2.80;100.00
55301;BME280;58302;51.446;-2.000;2023-03-14T03:45:48;98554.78;;;2.79;100.00
55301;BME280;58302;51.446;-2.000;2023-03-14T03:48:14;98552.13;;;2.79;100.00
55301;BME280;58302;51.446;-2.000;2023-03-14T03:50:46;98555.88;;;2.78;100.00
55301;BME280;58302;51.446;-2.000;2023-03-14T03:53:13;98558.53;;;2.73;100.00
55301;BME280;58302;51.446;-2.000;2023-03-14T03:55:41;98556.13;;;2.77;100.00
55301;BME280;58302;51.446;-2.000;2023-03-14T03:58:08;98573.03;;;2.77;100.00
55301;BME280;58302;51.446;-2.000;2023-03-14T04:00:34;98571.44;;;2.76;100.00
55301;BME280;58302;51.446;-2.000;2023-03-14T04:03:00;98578.91;;;2.74;100.00
55301;BME280;58302;51.446;-2.000;2023-03-14T04:05:26;98589.09;;;2.72;100.00
55301;BME280;58302;51.446;-2.000;2023-03-14T04:07:52;98588.06;;;2.78;100.00
55301;BME280;58302;51.446;-2.000;2023-03-14T04:10:18;98586.41;;;2.72;100.00
55301;BME280;58302;51.446;-2.000;2023-03-14T04:12:44;98589.88;;;2.68;100.00
55301;BME280;58302;51.446;-2.000;2023-03-14T04:15:10;98594.38;;;2.57;100.00
55301;BME280;58302;51.446;-2.000;2023-03-14T04:17:36;98599.91;;;2.45;100.00
55301;BME280;58302;51.446;-2.000;2023-03-14T04:20:02;98600.63;;;2.30;100.00
55301;BME280;58302;51.446;-2.000;2023-03-14T04:22:29;98601.59;;;2.19;100.00
55301;BME280;58302;51.446;-2.000;2023-03-14T04:24:55;98607.41;;;2.06;100.00
55301;BME280;58302;51.446;-2.000;2023-03-14T04:27:21;98609.00;;;2.07;100.00
55301;BME280;58302;51.446;-2.000;2023-03-14T04:29:47;98598.56;;;2.05;100.00
55301;BME280;58302;51.446;-2.000;2023-03-14T04:32:13;98599.28;;;1.96;100.00
55301;BME280;58302;51.446;-2.000;2023-03-14T04:34:39;98591.88;;;2.08;100.00
55301;BME280;58302;51.446;-2.000;2023-03-14T04:37:04;98590.00;;;2.08;100.00
55301;BME280;58302;51.446;-2.000;2023-03-14T04:39:30;98592.22;;;2.17;100.00
55301;BME280;58302;51.446;-2.000;2023-03-14T04:41:56;98604.91;;;2.26;100.00
55301;BME280;58302;51.446;-2.000;2023-03-14T04:44:22;98610.50;;;2.25;100.00
55301;BME280;58302;51.446;-2.000;2023-03-14T04:46:48;98614.00;;;2.30;100.00
55301;BME280;58302;51.446;-2.000;2023-03-14T04:49:14;98632.31;;;2.38;100.00
55301;BME280;58302;51.446;-2.000;2023-03-14T04:51:40;98635.50;;;2.35;100.00
55301;BME280;58302;51.446;-2.000;2023-03-14T04:54:07;98650.53;;;2.36;100.00
55301;BME280;58302;51.446;-2.000;2023-03-14T04:56:33;98640.41;;;2.44;100.00
55301;BME280;58302;51.446;-2.000;2023-03-14T04:58:59;98649.28;;;2.49;100.00
55301;BME280;58302;51.446;-2.000;2023-03-14T05:01:25;98669.13;;;2.48;100.00
55301;BME280;58302;51.446;-2.000;2023-03-14T05:03:51;98664.84;;;2.52;100.00
55301;BME280;58302;51.446;-2.000;2023-03-14T05:06:16;98680.63;;;2.44;100.00
55301;BME280;58302;51.446;-2.000;2023-03-14T05:08:42;98677.13;;;2.43;100.00
55301;BME280;58302;51.446;-2.000;2023-03-14T05:11:10;98673.69;;;2.48;100.00
55301;BME280;58302;51.446;-2.000;2023-03-14T05:13:36;98688.44;;;2.50;100.00
55301;BME280;58302;51.446;-2.000;2023-03-14T05:16:06;98692.72;;;2.51;100.00
55301;BME280;58302;51.446;-2.000;2023-03-14T05:18:33;98707.47;;;2.49;100.00
55301;BME280;58302;51.446;-2.000;2023-03-14T05:20:59;98712.25;;;2.47;100.00
55301;BME280;58302;51.446;-2.000;2023-03-14T05:23:25;98713.53;;;2.39;100.00
55301;BME280;58302;51.446;-2.000;2023-03-14T05:25:51;98735.78;;;2.40;100.00
55301;BME280;58302;51.446;-2.000;2023-03-14T05:28:17;98738.47;;;2.40;100.00
55301;BME280;58302;51.446;-2.000;2023-03-14T05:30:43;98735.19;;;2.32;100.00
55301;BME280;58302;51.446;-2.000;2023-03-14T05:33:09;98750.09;;;2.23;100.00
55301;BME280;58302;51.446;-2.000;2023-03-14T05:35:35;98748.38;;;2.12;100.00
55301;BME280;58302;51.446;-2.000;2023-03-14T05:38:00;98759.06;;;2.07;100.00
55301;BME280;58302;51.446;-2.000;2023-03-14T05:40:26;98760.66;;;2.08;100.00
55301;BME280;58302;51.446;-2.000;2023-03-14T05:42:52;98762.53;;;2.07;100.00
55301;BME280;58302;51.446;-2.000;2023-03-14T05:45:18;98773.78;;;2.04;100.00
55301;BME280;58302;51.446;-2.000;2023-03-14T05:47:44;98777.81;;;2.07;100.00
55301;BME280;58302;51.446;-2.000;2023-03-14T05:50:10;98788.78;;;2.05;100.00
55301;BME280;58302;51.446;-2.000;2023-03-14T05:52:36;98790.72;;;2.10;100.00
55301;BME280;58302;51.446;-2.000;2023-03-14T05:55:03;98784.84;;;2.13;100.00
55301;BME280;58302;51.446;-2.000;2023-03-14T05:57:29;98790.94;;;2.08;100.00
55301;BME280;58302;51.446;-2.000;2023-03-14T05:59:55;98796.88;;;2.10;100.00
55301;BME280;58302;51.446;-2.000;2023-03-14T06:02:21;98798.59;;;2.22;100.00
55301;BME280;58302;51.446;-2.000;2023-03-14T06:04:47;98810.63;;;2.19;100.00
55301;BME280;58302;51.446;-2.000;2023-03-14T06:07:13;98810.69;;;2.24;100.00
55301;BME280;58302;51.446;-2.000;2023-03-14T06:09:39;98812.75;;;2.17;100.00
55301;BME280;58302;51.446;-2.000;2023-03-14T06:12:05;98810.56;;;2.14;100.00
55301;BME280;58302;51.446;-2.000;2023-03-14T06:14:31;98818.06;;;2.12;100.00
55301;BME280;58302;51.446;-2.000;2023-03-14T06:16:57;98818.31;;;2.10;100.00
55301;BME280;58302;51.446;-2.000;2023-03-14T06:19:25;98830.91;;;2.10;100.00
55301;BME280;58302;51.446;-2.000;2023-03-14T06:21:51;98841.38;;;2.11;100.00
55301;BME280;58302;51.446;-2.000;2023-03-14T06:24:17;98856.31;;;2.07;100.00
55301;BME280;58302;51.446;-2.000;2023-03-14T06:26:43;98852.47;;;1.98;100.00
55301;BME280;58302;51.446;-2.000;2023-03-14T06:29:10;98855.63;;;1.95;100.00
55301;BME280;58302;51.446;-2.000;2023-03-14T06:31:36;98859.25;;;2.06;100.00
55301;BME280;58302;51.446;-2.000;2023-03-14T06:34:02;98863.59;;;2.12;100.00
55301;BME280;58302;51.446;-2.000;2023-03-14T06:36:28;98872.78;;;2.16;100.00
55301;BME280;58302;51.446;-2.000;2023-03-14T06:38:55;98882.19;;;2.19;100.00
55301;BME280;58302;51.446;-2.000;2023-03-14T06:41:21;98887.59;;;2.24;100.00
55301;BME280;58302;51.446;-2.000;2023-03-14T06:43:49;98895.91;;;2.22;100.00
55301;BME280;58302;51.446;-2.000;2023-03-14T06:46:16;98902.56;;;2.20;100.00
55301;BME280;58302;51.446;-2.000;2023-03-14T06:48:42;98902.56;;;2.20;100.00
55301;BME280;58302;51.446;-2.000;2023-03-14T06:51:08;98909.03;;;2.24;100.00
55301;BME280;58302;51.446;-2.000;2023-03-14T06:53:34;98912.59;;;2.29;100.00
55301;BME280;58302;51.446;-2.000;2023-03-14T06:56:00;98925.00;;;2.35;100.00
55301;BME280;58302;51.446;-2.000;2023-03-14T06:58:26;98930.50;;;2.46;100.00
55301;BME280;58302;51.446;-2.000;2023-03-14T07:00:53;98934.69;;;2.58;100.00
55301;BME280;58302;51.446;-2.000;2023-03-14T07:03:20;98951.00;;;2.79;100.00
55301;BME280;58302;51.446;-2.000;2023-03-14T07:05:46;98954.34;;;2.91;100.00
55301;BME280;58302;51.446;-2.000;2023-03-14T07:08:12;98962.81;;;3.05;100.00
55301;BME280;58302;51.446;-2.000;2023-03-14T07:10:38;98968.56;;;3.18;100.00
55301;BME280;58302;51.446;-2.000;2023-03-14T07:13:04;98984.84;;;3.34;100.00
55301;BME280;58302;51.446;-2.000;2023-03-14T07:15:30;98994.06;;;3.43;100.00
55301;BME280;58302;51.446;-2.000;2023-03-14T07:17:56;99002.72;;;3.50;100.00
55301;BME280;58302;51.446;-2.000;2023-03-14T07:20:22;99008.72;;;3.57;100.00
55301;BME280;58302;51.446;-2.000;2023-03-14T07:22:49;99024.63;;;3.64;100.00
55301;BME280;58302;51.446;-2.000;2023-03-14T07:25:16;99036.97;;;3.65;100.00
55301;BME280;58302;51.446;-2.000;2023-03-14T07:27:46;99039.63;;;3.60;100.00
55301;BME280;58302;51.446;-2.000;2023-03-14T07:30:13;99044.44;;;3.58;100.00
55301;BME280;58302;51.446;-2.000;2023-03-14T07:32:39;99055.69;;;3.55;100.00
55301;BME280;58302;51.446;-2.000;2023-03-14T07:35:06;99057.28;;;3.56;100.00
55301;BME280;58302;51.446;-2.000;2023-03-14T07:37:32;99064.91;;;3.64;100.00
55301;BME280;58302;51.446;-2.000;2023-03-14T07:39:58;99069.81;;;3.72;100.00
55301;BME280;58302;51.446;-2.000;2023-03-14T07:42:24;99080.91;;;3.81;100.00
55301;BME280;58302;51.446;-2.000;2023-03-14T07:44:51;99094.16;;;3.87;100.00
55301;BME280;58302;51.446;-2.000;2023-03-14T07:47:17;99099.03;;;3.90;100.00
55301;BME280;58302;51.446;-2.000;2023-03-14T07:49:43;99122.75;;;3.99;100.00
55301;BME280;58302;51.446;-2.000;2023-03-14T07:52:08;99132.25;;;4.11;100.00
55301;BME280;58302;51.446;-2.000;2023-03-14T07:54:36;99138.53;;;4.22;100.00
55301;BME280;58302;51.446;-2.000;2023-03-14T07:57:02;99153.22;;;4.41;100.00
55301;BME280;58302;51.446;-2.000;2023-03-14T07:59:28;99170.25;;;4.52;100.00
55301;BME280;58302;51.446;-2.000;2023-03-14T08:01:54;99180.50;;;4.55;100.00
55301;BME280;58302;51.446;-2.000;2023-03-14T08:04:20;99188.88;;;4.59;100.00
55301;BME280;58302;51.446;-2.000;2023-03-14T08:06:45;99196.94;;;4.59;100.00
55301;BME280;58302;51.446;-2.000;2023-03-14T08:09:11;99210.13;;;4.60;100.00
55301;BME280;58302;51.446;-2.000;2023-03-14T08:11:37;99219.81;;;4.56;100.00
55301;BME280;58302;51.446;-2.000;2023-03-14T08:14:03;99220.31;;;4.53;100.00
55301;BME280;58302;51.446;-2.000;2023-03-14T08:16:29;99238.78;;;4.44;100.00
55301;BME280;58302;51.446;-2.000;2023-03-14T08:18:56;99242.28;;;4.45;100.00
55301;BME280;58302;51.446;-2.000;2023-03-14T08:21:22;99253.88;;;4.45;100.00
55301;BME280;58302;51.446;-2.000;2023-03-14T08:23:48;99262.75;;;4.46;100.00
55301;BME280;58302;51.446;-2.000;2023-03-14T08:26:14;99271.06;;;4.44;100.00
55301;BME280;58302;51.446;-2.000;2023-03-14T08:28:40;99276.97;;;4.41;100.00
55301;BME280;58302;51.446;-2.000;2023-03-14T08:31:06;99279.91;;;4.40;100.00
55301;BME280;58302;51.446;-2.000;2023-03-14T08:33:32;99285.59;;;4.43;100.00
55301;BME280;58302;51.446;-2.000;2023-03-14T08:35:59;99291.00;;;4.48;100.00
55301;BME280;58302;51.446;-2.000;2023-03-14T08:38:26;99302.38;;;4.56;100.00
55301;BME280;58302;51.446;-2.000;2023-03-14T08:40:56;99312.38;;;4.60;100.00
55301;BME280;58302;51.446;-2.000;2023-03-14T08:43:23;99327.56;;;4.71;100.00
55301;BME280;58302;51.446;-2.000;2023-03-14T08:45:49;99339.97;;;4.72;100.00
55301;BME280;58302;51.446;-2.000;2023-03-14T08:48:15;99347.63;;;4.59;100.00
55301;BME280;58302;51.446;-2.000;2023-03-14T08:50:41;99350.94;;;4.44;100.00
55301;BME280;58302;51.446;-2.000;2023-03-14T08:53:07;99361.22;;;4.25;100.00
55301;BME280;58302;51.446;-2.000;2023-03-14T08:55:33;99362.44;;;4.12;100.00
55301;BME280;58302;51.446;-2.000;2023-03-14T08:57:59;99363.16;;;3.86;100.00
55301;BME280;58302;51.446;-2.000;2023-03-14T09:00:25;99378.06;;;3.77;100.00
55301;BME280;58302;51.446;-2.000;2023-03-14T09:02:50;99371.53;;;3.73;100.00
55301;BME280;58302;51.446;-2.000;2023-03-14T09:05:16;99381.16;;;3.85;100.00
55301;BME280;58302;51.446;-2.000;2023-03-14T09:07:42;99378.91;;;3.99;100.00
55301;BME280;58302;51.446;-2.000;2023-03-14T09:10:09;99383.81;;;4.24;100.00
55301;BME280;58302;51.446;-2.000;2023-03-14T09:12:35;99402.44;;;4.53;100.00
55301;BME280;58302;51.446;-2.000;2023-03-14T09:15:02;99407.44;;;4.93;100.00
55301;BME280;58302;51.446;-2.000;2023-03-14T09:17:28;99429.75;;;5.15;100.00
55301;BME280;58302;51.446;-2.000;2023-03-14T09:19:54;99437.34;;;5.18;100.00
55301;BME280;58302;51.446;-2.000;2023-03-14T09:22:20;99441.38;;;5.21;100.00
55301;BME280;58302;51.446;-2.000;2023-03-14T09:24:47;99451.00;;;5.39;100.00
55301;BME280;58302;51.446;-2.000;2023-03-14T09:27:13;99465.28;;;5.39;100.00
55301;BME280;58302;51.446;-2.000;2023-03-14T09:29:39;99473.97;;;5.46;100.00
55301;BME280;58302;51.446;-2.000;2023-03-14T09:32:05;99493.03;;;5.67;100.00
55301;BME280;58302;51.446;-2.000;2023-03-14T09:34:31;99502.47;;;5.69;100.00
55301;BME280;58302;51.446;-2.000;2023-03-14T09:36:57;99512.44;;;5.69;100.00
55301;BME280;58302;51.446;-2.000;2023-03-14T09:39:22;99517.31;;;5.72;100.00
55301;BME280;58302;51.446;-2.000;2023-03-14T09:41:51;99527.66;;;5.85;100.00
55301;BME280;58302;51.446;-2.000;2023-03-14T09:44:27;99542.09;;;5.69;100.00
55301;BME280;58302;51.446;-2.000;2023-03-14T09:47:04;99553.84;;;5.58;100.00
55301;BME280;58302;51.446;-2.000;2023-03-14T09:49:33;99557.78;;;5.23;100.00
55301;BME280;58302;51.446;-2.000;2023-03-14T09:52:02;99575.19;;;4.93;100.00
55301;BME280;58302;51.446;-2.000;2023-03-14T09:54:45;99584.06;;;4.94;100.00
55301;BME280;58302;51.446;-2.000;2023-03-14T09:57:18;99586.81;;;4.99;100.00
55301;BME280;58302;51.446;-2.000;2023-03-14T09:59:46;99590.78;;;5.13;100.00
55301;BME280;58302;51.446;-2.000;2023-03-14T10:02:18;99596.78;;;4.98;100.00
55301;BME280;58302;51.446;-2.000;2023-03-14T10:04:46;99604.56;;;4.95;100.00
55301;BME280;58302;51.446;-2.000;2023-03-14T10:07:16;99610.59;;;5.24;100.00
55301;BME280;58302;51.446;-2.000;2023-03-14T10:09:48;99613.50;;;5.93;100.00
55301;BME280;58302;51.446;-2.000;2023-03-14T10:12:16;99624.69;;;6.71;100.00
55301;BME280;58302;51.446;-2.000;2023-03-14T10:14:52;99632.25;;;7.22;100.00
55301;BME280;58302;51.446;-2.000;2023-03-14T10:17:19;99635.44;;;6.66;100.00
55301;BME280;58302;51.446;-2.000;2023-03-14T10:19:57;99655.66;;;6.26;100.00
55301;BME280;58302;51.446;-2.000;2023-03-14T10:22:30;99654.13;;;6.08;100.00
55301;BME280;58302;51.446;-2.000;2023-03-14T10:25:02;99667.06;;;6.06;100.00
55301;BME280;58302;51.446;-2.000;2023-03-14T10:27:31;99672.59;;;5.95;100.00
55301;BME280;58302;51.446;-2.000;2023-03-14T10:30:07;99673.72;;;5.99;100.00
55301;BME280;58302;51.446;-2.000;2023-03-14T10:32:36;99673.09;;;6.19;100.00
55301;BME280;58302;51.446;-2.000;2023-03-14T10:38:01;99681.25;;;8.13;100.00
55301;BME280;58302;51.446;-2.000;2023-03-14T10:40:37;99694.78;;;9.20;100.00
55301;BME280;58302;51.446;-2.000;2023-03-14T10:43:06;99700.03;;;9.71;100.00
55301;BME280;58302;51.446;-2.000;2023-03-14T10:45:38;99703.50;;;9.82;100.00
55301;BME280;58302;51.446;-2.000;2023-03-14T10:53:43;99734.38;;;8.60;100.00
55301;BME280;58302;51.446;-2.000;2023-03-14T10:56:18;99759.09;;;7.86;100.00
55301;BME280;58302;51.446;-2.000;2023-03-14T10:58:46;99766.03;;;7.72;100.00
55301;BME280;58302;51.446;-2.000;2023-03-14T11:07:15;99797.38;;;9.93;100.00
55301;BME280;58302;51.446;-2.000;2023-03-14T11:10:10;99821.06;;;8.70;100.00
55301;BME280;58302;51.446;-2.000;2023-03-14T11:15:40;99815.69;;;8.96;100.00
55301;BME280;58302;51.446;-2.000;2023-03-14T11:20:55;99834.91;;;9.61;100.00
55301;BME280;58302;51.446;-2.000;2023-03-14T11:28:50;99844.00;;;11.49;100.00
55301;BME280;58302;51.446;-2.000;2023-03-14T11:31:31;99852.03;;;11.30;100.00
55301;BME280;58302;51.446;-2.000;2023-03-14T11:39:16;99875.31;;;8.86;100.00
55301;BME280;58302;51.446;-2.000;2023-03-14T11:41:46;99870.88;;;8.54;100.00
55301;BME280;58302;51.446;-2.000;2023-03-14T11:44:21;99860.97;;;9.41;100.00
55301;BME280;58302;51.446;-2.000;2023-03-14T11:46:55;99868.69;;;10.29;100.00
55301;BME280;58302;51.446;-2.000;2023-03-14T11:49:30;99875.66;;;11.00;100.00
55301;BME280;58302;51.446;-2.000;2023-03-14T11:52:02;99879.88;;;11.22;100.00
55301;BME280;58302;51.446;-2.000;2023-03-14T11:54:34;99873.38;;;10.73;100.00
55301;BME280;58302;51.446;-2.000;2023-03-14T11:57:05;99877.19;;;11.17;100.00
55301;BME280;58302;51.446;-2.000;2023-03-14T12:10:19;99948.78;;;12.15;100.00
55301;BME280;58302;51.446;-2.000;2023-03-14T12:12:45;99955.34;;;11.74;100.00
55301;BME280;58302;51.446;-2.000;2023-03-14T12:15:20;99959.69;;;11.75;100.00
55301;BME280;58302;51.446;-2.000;2023-03-14T12:17:55;99958.06;;;11.74;100.00
55301;BME280;58302;51.446;-2.000;2023-03-14T12:20:24;99962.50;;;11.70;100.00
55301;BME280;58302;51.446;-2.000;2023-03-14T12:22:52;99968.44;;;11.72;100.00
55301;BME280;58302;51.446;-2.000;2023-03-14T12:25:30;99974.59;;;11.54;100.00
55301;BME280;58302;51.446;-2.000;2023-03-14T12:30:28;99971.72;;;13.04;93.74
55301;BME280;58302;51.446;-2.000;2023-03-14T12:35:44;99980.31;;;13.35;75.63
55301;BME280;58302;51.446;-2.000;2023-03-14T12:41:20;99986.78;;;13.39;67.91
55301;BME280;58302;51.446;-2.000;2023-03-14T12:43:48;99988.63;;;13.44;66.23
55301;BME280;58302;51.446;-2.000;2023-03-14T12:48:54;99984.34;;;13.19;58.61
55301;BME280;58302;51.446;-2.000;2023-03-14T12:51:35;99986.19;;;13.61;52.41
55301;BME280;58302;51.446;-2.000;2023-03-14T12:59:32;99994.53;;;12.89;54.28
55301;BME280;58302;51.446;-2.000;2023-03-14T13:04:35;99999.09;;;11.54;70.41
55301;BME280;58302;51.446;-2.000;2023-03-14T13:07:03;99997.72;;;11.07;79.37
55301;BME280;58302;51.446;-2.000;2023-03-14T13:12:00;100001.03;;;10.94;78.24
55301;BME280;58302;51.446;-2.000;2023-03-14T13:14:29;99997.78;;;10.87;79.46
55301;BME280;58302;51.446;-2.000;2023-03-14T13:16:59;99999.94;;;11.44;85.77
55301;BME280;58302;51.446;-2.000;2023-03-14T13:19:27;100003.09;;;12.01;69.84
55301;BME280;58302;51.446;-2.000;2023-03-14T13:22:04;100006.84;;;12.10;70.55
55301;BME280;58302;51.446;-2.000;2023-03-14T13:24:33;100002.28;;;11.17;80.24
55301;BME280;58302;51.446;-2.000;2023-03-14T13:27:00;100013.75;;;11.03;89.79
55301;BME280;58302;51.446;-2.000;2023-03-14T13:29:29;100010.59;;;11.35;78.80
55301;BME280;58302;51.446;-2.000;2023-03-14T13:32:01;100021.09;;;11.03;76.89
55301;BME280;58302;51.446;-2.000;2023-03-14T13:34:29;100016.34;;;10.64;90.44
55301;BME280;58302;51.446;-2.000;2023-03-14T13:36:55;100015.81;;;11.32;90.79
55301;BME280;58302;51.446;-2.000;2023-03-14T13:39:26;100016.44;;;11.97;74.82
55301;BME280;58302;51.446;-2.000;2023-03-14T13:41:57;100020.09;;;12.46;70.50
55301;BME280;58302;51.446;-2.000;2023-03-14T13:44:38;100021.91;;;13.03;56.29
55301;BME280;58302;51.446;-2.000;2023-03-14T13:47:10;100025.38;;;12.37;54.37
55301;BME280;58302;51.446;-2.000;2023-03-14T13:49:39;100026.94;;;11.75;62.25
55301;BME280;58302;51.446;-2.000;2023-03-14T13:54:47;100040.38;;;12.05;60.81
55301;BME280;58302;51.446;-2.000;2023-03-14T13:57:13;100033.31;;;11.60;57.79
55301;BME280;58302;51.446;-2.000;2023-03-14T13:59:39;100036.59;;;11.02;65.51
55301;BME280;58302;51.446;-2.000;2023-03-14T14:02:12;100036.75;;;10.57;80.27
55301;BME280;58302;51.446;-2.000;2023-03-14T14:04:39;100049.84;;;10.44;77.79